Main page
METAR-TAF:

METAR-TAF

Airports :

Cazaux Air Base

Cazaux, France

latitude: 44-32N, longitude: 001-08W, elevation: 25 m

Current weather observation

The report was made 24 minutes ago, at 23:30 UTC
Wind 4 kt from the West/Northwest
Temperature 18°C
Humidity 94%
Pressure 1023 hPa
Visibility 10 km or more
Broken clouds at a height of 800 ft
Overcast at a height of 1300 ft

METAR: LFBC 052330Z AUTO 30004KT 9999 BKN008 OVC013 18/17 Q1023

Time: 01:54 (23:54 UTC)


TAF: missing

Weather observations and forecasts of more than 4000 airports (METAR and TAF reports).

The available stations are represented by yellow and red dots on the map.

Hover mouse over dot to see the name of the station.

Then click to see weather observations and forecasts.

To change the map : click on the green buttons with a black cross to zoom in, on the green button with a dash to zoom out, or on the green arrows for adjacent maps.


METAR-TAF: